sensor_id;sensor_type;location;lat;lon;timestamp;P1;durP1;ratioP1;P2;durP2;ratioP2
42802;SDS011;28447;48.682;9.022;2023-06-19T04:00:10;5.50;;;4.67;;
42802;SDS011;28447;48.682;9.022;2023-06-19T04:02:38;5.73;;;4.80;;
42802;SDS011;28447;48.682;9.022;2023-06-19T04:05:04;5.40;;;4.60;;
42802;SDS011;28447;48.682;9.022;2023-06-19T04:07:30;7.27;;;4.70;;
42802;SDS011;28447;48.682;9.022;2023-06-19T04:09:57;5.53;;;5.03;;
42802;SDS011;28447;48.682;9.022;2023-06-19T04:12:23;5.80;;;4.97;;
42802;SDS011;28447;48.682;9.022;2023-06-19T04:14:48;6.17;;;5.13;;
42802;SDS011;28447;48.682;9.022;2023-06-19T04:17:14;5.60;;;5.00;;
42802;SDS011;28447;48.682;9.022;2023-06-19T04:19:40;7.40;;;4.83;;
42802;SDS011;28447;48.682;9.022;2023-06-19T04:22:06;5.40;;;4.90;;
42802;SDS011;28447;48.682;9.022;2023-06-19T04:24:32;8.33;;;5.00;;
42802;SDS011;28447;48.682;9.022;2023-06-19T04:26:57;7.67;;;5.37;;
42802;SDS011;28447;48.682;9.022;2023-06-19T04:29:23;5.67;;;4.97;;
42802;SDS011;28447;48.682;9.022;2023-06-19T04:31:48;6.30;;;4.83;;
42802;SDS011;28447;48.682;9.022;2023-06-19T04:34:18;4.80;;;4.03;;
42802;SDS011;28447;48.682;9.022;2023-06-19T04:36:47;5.07;;;4.57;;
42802;SDS011;28447;48.682;9.022;2023-06-19T04:39:13;5.20;;;4.70;;
42802;SDS011;28447;48.682;9.022;2023-06-19T04:41:40;5.60;;;4.80;;
42802;SDS011;28447;48.682;9.022;2023-06-19T04:44:06;6.77;;;4.50;;
42802;SDS011;28447;48.682;9.022;2023-06-19T04:46:32;4.80;;;4.03;;
42802;SDS011;28447;48.682;9.022;2023-06-19T04:48:58;4.77;;;4.27;;
42802;SDS011;28447;48.682;9.022;2023-06-19T04:51:24;4.93;;;4.43;;
42802;SDS011;28447;48.682;9.022;2023-06-19T04:53:51;5.50;;;4.83;;
42802;SDS011;28447;48.682;9.022;2023-06-19T04:56:17;5.20;;;4.70;;
42802;SDS011;28447;48.682;9.022;2023-06-19T04:58:42;5.50;;;4.07;;
42802;SDS011;28447;48.682;9.022;2023-06-19T05:01:12;5.07;;;4.57;;
42802;SDS011;28447;48.682;9.022;2023-06-19T05:03:39;5.20;;;4.60;;
42802;SDS011;28447;48.682;9.022;2023-06-19T05:06:05;5.33;;;4.40;;
42802;SDS011;28447;48.682;9.022;2023-06-19T05:08:30;4.40;;;3.83;;
42802;SDS011;28447;48.682;9.022;2023-06-19T05:10:56;5.20;;;4.70;;
42802;SDS011;28447;48.682;9.022;2023-06-19T05:13:22;5.47;;;4.60;;
42802;SDS011;28447;48.682;9.022;2023-06-19T05:15:51;4.73;;;4.23;;
42802;SDS011;28447;48.682;9.022;2023-06-19T05:18:17;4.83;;;3.93;;
42802;SDS011;28447;48.682;9.022;2023-06-19T05:20:43;4.60;;;4.13;;
42802;SDS011;28447;48.682;9.022;2023-06-19T05:23:09;5.93;;;3.93;;
42802;SDS011;28447;48.682;9.022;2023-06-19T05:25:35;5.23;;;4.37;;
42802;SDS011;28447;48.682;9.022;2023-06-19T05:28:00;5.80;;;4.27;;
42802;SDS011;28447;48.682;9.022;2023-06-19T05:30:26;4.90;;;4.20;;
42802;SDS011;28447;48.682;9.022;2023-06-19T05:32:52;5.17;;;4.30;;
42802;SDS011;28447;48.682;9.022;2023-06-19T05:35:17;4.73;;;4.27;;
42802;SDS011;28447;48.682;9.022;2023-06-19T05:37:43;5.30;;;4.80;;
42802;SDS011;28447;48.682;9.022;2023-06-19T05:40:09;5.37;;;4.87;;
42802;SDS011;28447;48.682;9.022;2023-06-19T05:42:35;5.03;;;4.53;;
42802;SDS011;28447;48.682;9.022;2023-06-19T05:45:02;4.70;;;4.20;;
42802;SDS011;28447;48.682;9.022;2023-06-19T05:47:28;4.60;;;4.20;;
42802;SDS011;28447;48.682;9.022;2023-06-19T05:49:55;5.20;;;4.30;;
42802;SDS011;28447;48.682;9.022;2023-06-19T05:52:21;4.27;;;3.87;;
42802;SDS011;28447;48.682;9.022;2023-06-19T05:54:47;4.30;;;3.90;;
42802;SDS011;28447;48.682;9.022;2023-06-19T05:57:13;5.37;;;4.57;;
42802;SDS011;28447;48.682;9.022;2023-06-19T05:59:41;4.93;;;4.47;;
42802;SDS011;28447;48.682;9.022;2023-06-19T06:02:07;4.63;;;4.20;;
42802;SDS011;28447;48.682;9.022;2023-06-19T06:04:33;4.93;;;4.43;;
42802;SDS011;28447;48.682;9.022;2023-06-19T06:06:59;5.33;;;4.83;;
42802;SDS011;28447;48.682;9.022;2023-06-19T06:09:25;5.90;;;4.37;;
42802;SDS011;28447;48.682;9.022;2023-06-19T06:11:51;5.37;;;4.67;;
42802;SDS011;28447;48.682;9.022;2023-06-19T06:14:17;4.83;;;4.30;;
42802;SDS011;28447;48.682;9.022;2023-06-19T06:16:43;7.10;;;4.37;;
42802;SDS011;28447;48.682;9.022;2023-06-19T06:19:09;4.23;;;3.83;;
42802;SDS011;28447;48.682;9.022;2023-06-19T06:21:34;4.70;;;4.20;;
42802;SDS011;28447;48.682;9.022;2023-06-19T06:24:00;4.30;;;3.67;;
42802;SDS011;28447;48.682;9.022;2023-06-19T06:26:25;4.17;;;3.77;;
42802;SDS011;28447;48.682;9.022;2023-06-19T06:28:52;4.10;;;3.70;;
42802;SDS011;28447;48.682;9.022;2023-06-19T06:31:18;6.27;;;4.43;;
42802;SDS011;28447;48.682;9.022;2023-06-19T06:33:44;4.30;;;3.90;;
42802;SDS011;28447;48.682;9.022;2023-06-19T06:36:10;4.53;;;4.10;;
42802;SDS011;28447;48.682;9.022;2023-06-19T06:38:35;4.93;;;3.70;;
42802;SDS011;28447;48.682;9.022;2023-06-19T06:41:01;5.87;;;4.00;;
42802;SDS011;28447;48.682;9.022;2023-06-19T06:43:27;4.40;;;4.00;;
42802;SDS011;28447;48.682;9.022;2023-06-19T06:45:53;4.10;;;3.70;;
42802;SDS011;28447;48.682;9.022;2023-06-19T06:48:18;4.83;;;4.33;;
42802;SDS011;28447;48.682;9.022;2023-06-19T06:50:45;4.80;;;4.33;;
42802;SDS011;28447;48.682;9.022;2023-06-19T06:53:11;4.20;;;3.80;;
42802;SDS011;28447;48.682;9.022;2023-06-19T06:55:37;4.23;;;3.83;;
42802;SDS011;28447;48.682;9.022;2023-06-19T06:58:02;4.57;;;4.17;;
42802;SDS011;28447;48.682;9.022;2023-06-19T07:00:28;4.47;;;4.07;;
42802;SDS011;28447;48.682;9.022;2023-06-19T07:02:54;5.17;;;4.33;;
42802;SDS011;28447;48.682;9.022;2023-06-19T07:05:19;5.17;;;4.40;;
42802;SDS011;28447;48.682;9.022;2023-06-19T07:07:45;4.90;;;4.40;;
42802;SDS011;28447;48.682;9.022;2023-06-19T07:10:11;5.10;;;4.47;;
42802;SDS011;28447;48.682;9.022;2023-06-19T07:12:47;4.90;;;4.40;;
42802;SDS011;28447;48.682;9.022;2023-06-19T07:15:13;5.47;;;4.20;;
42802;SDS011;28447;48.682;9.022;2023-06-19T07:17:39;4.70;;;4.30;;
42802;SDS011;28447;48.682;9.022;2023-06-19T07:20:04;4.93;;;4.20;;
42802;SDS011;28447;48.682;9.022;2023-06-19T07:22:31;4.30;;;3.90;;
42802;SDS011;28447;48.682;9.022;2023-06-19T07:24:57;5.10;;;3.93;;
42802;SDS011;28447;48.682;9.022;2023-06-19T07:27:23;4.90;;;4.50;;
42802;SDS011;28447;48.682;9.022;2023-06-19T07:29:52;4.43;;;4.00;;
42802;SDS011;28447;48.682;9.022;2023-06-19T07:32:18;4.27;;;3.87;;
42802;SDS011;28447;48.682;9.022;2023-06-19T07:34:44;4.70;;;4.10;;
42802;SDS011;28447;48.682;9.022;2023-06-19T07:37:10;4.50;;;4.10;;
42802;SDS011;28447;48.682;9.022;2023-06-19T07:39:42;4.80;;;4.40;;
42802;SDS011;28447;48.682;9.022;2023-06-19T07:42:17;4.67;;;4.10;;
42802;SDS011;28447;48.682;9.022;2023-06-19T07:44:44;5.23;;;4.73;;
42802;SDS011;28447;48.682;9.022;2023-06-19T07:47:10;5.20;;;4.70;;
42802;SDS011;28447;48.682;9.022;2023-06-19T07:49:37;5.33;;;4.83;;
42802;SDS011;28447;48.682;9.022;2023-06-19T07:52:03;5.47;;;4.97;;
42802;SDS011;28447;48.682;9.022;2023-06-19T07:54:29;7.87;;;5.13;;
42802;SDS011;28447;48.682;9.022;2023-06-19T07:56:55;5.20;;;4.70;;
42802;SDS011;28447;48.682;9.022;2023-06-19T07:59:21;8.53;;;5.00;;
42802;SDS011;28447;48.682;9.022;2023-06-19T08:01:47;5.10;;;4.70;;
42802;SDS011;28447;48.682;9.022;2023-06-19T08:04:14;5.47;;;4.73;;
42802;SDS011;28447;48.682;9.022;2023-06-19T08:06:39;6.00;;;5.30;;
42802;SDS011;28447;48.682;9.022;2023-06-19T08:09:05;6.10;;;5.57;;
42802;SDS011;28447;48.682;9.022;2023-06-19T08:11:31;6.27;;;5.53;;
42802;SDS011;28447;48.682;9.022;2023-06-19T08:13:57;6.10;;;5.50;;
42802;SDS011;28447;48.682;9.022;2023-06-19T08:16:24;5.20;;;4.70;;
42802;SDS011;28447;48.682;9.022;2023-06-19T08:18:50;5.20;;;4.70;;
42802;SDS011;28447;48.682;9.022;2023-06-19T08:21:16;5.43;;;4.93;;
42802;SDS011;28447;48.682;9.022;2023-06-19T08:23:41;5.57;;;4.77;;
42802;SDS011;28447;48.682;9.022;2023-06-19T08:26:08;6.47;;;4.63;;
42802;SDS011;28447;48.682;9.022;2023-06-19T08:28:35;5.43;;;4.93;;
42802;SDS011;28447;48.682;9.022;2023-06-19T08:31:02;5.63;;;4.70;;
42802;SDS011;28447;48.682;9.022;2023-06-19T08:33:28;4.93;;;4.43;;
42802;SDS011;28447;48.682;9.022;2023-06-19T08:35:53;5.00;;;4.57;;
42802;SDS011;28447;48.682;9.022;2023-06-19T08:38:19;5.00;;;4.45;;
42802;SDS011;28447;48.682;9.022;2023-06-19T08:40:44;4.80;;;4.40;;
42802;SDS011;28447;48.682;9.022;2023-06-19T08:43:10;5.15;;;4.50;;
42802;SDS011;28447;48.682;9.022;2023-06-19T08:45:36;4.63;;;4.22;;
42802;SDS011;28447;48.682;9.022;2023-06-19T08:48:03;4.55;;;4.15;;
42802;SDS011;28447;48.682;9.022;2023-06-19T08:50:32;4.78;;;4.32;;
42802;SDS011;28447;48.682;9.022;2023-06-19T08:52:58;4.25;;;3.85;;
42802;SDS011;28447;48.682;9.022;2023-06-19T08:55:24;4.45;;;4.05;;
42802;SDS011;28447;48.682;9.022;2023-06-19T08:57:50;5.03;;;4.57;;
42802;SDS011;28447;48.682;9.022;2023-06-19T09:00:24;4.70;;;4.30;;
42802;SDS011;28447;48.682;9.022;2023-06-19T09:02:52;5.53;;;4.60;;
42802;SDS011;28447;48.682;9.022;2023-06-19T09:05:23;5.32;;;4.82;;
42802;SDS011;28447;48.682;9.022;2023-06-19T09:07:58;4.72;;;4.22;;
42802;SDS011;28447;48.682;9.022;2023-06-19T09:10:27;5.00;;;4.50;;
42802;SDS011;28447;48.682;9.022;2023-06-19T09:13:00;5.75;;;4.28;;
42802;SDS011;28447;48.682;9.022;2023-06-19T09:15:30;4.50;;;4.10;;
42802;SDS011;28447;48.682;9.022;2023-06-19T09:18:04;5.00;;;4.60;;
42802;SDS011;28447;48.682;9.022;2023-06-19T09:20:31;6.30;;;4.05;;
42802;SDS011;28447;48.682;9.022;2023-06-19T09:22:58;4.88;;;4.47;;
42802;SDS011;28447;48.682;9.022;2023-06-19T09:25:24;4.88;;;4.18;;
42802;SDS011;28447;48.682;9.022;2023-06-19T09:27:52;6.40;;;4.65;;
42802;SDS011;28447;48.682;9.022;2023-06-19T09:30:19;5.45;;;4.55;;
42802;SDS011;28447;48.682;9.022;2023-06-19T09:32:45;4.28;;;3.80;;
42802;SDS011;28447;48.682;9.022;2023-06-19T09:35:10;4.53;;;4.05;;
42802;SDS011;28447;48.682;9.022;2023-06-19T09:37:36;4.03;;;3.60;;
42802;SDS011;28447;48.682;9.022;2023-06-19T09:40:05;5.40;;;4.60;;
42802;SDS011;28447;48.682;9.022;2023-06-19T09:42:43;4.47;;;4.07;;
42802;SDS011;28447;48.682;9.022;2023-06-19T09:45:11;4.25;;;3.70;;
42802;SDS011;28447;48.682;9.022;2023-06-19T09:47:43;3.90;;;3.40;;
42802;SDS011;28447;48.682;9.022;2023-06-19T09:50:14;4.20;;;3.88;;
42802;SDS011;28447;48.682;9.022;2023-06-19T09:52:41;4.13;;;3.83;;
42802;SDS011;28447;48.682;9.022;2023-06-19T09:55:08;4.65;;;3.78;;
42802;SDS011;28447;48.682;9.022;2023-06-19T09:57:37;3.80;;;3.40;;
42802;SDS011;28447;48.682;9.022;2023-06-19T10:00:05;4.05;;;3.53;;
42802;SDS011;28447;48.682;9.022;2023-06-19T10:02:41;4.20;;;3.47;;
42802;SDS011;28447;48.682;9.022;2023-06-19T10:05:09;5.65;;;4.60;;
42802;SDS011;28447;48.682;9.022;2023-06-19T10:07:37;4.30;;;3.90;;
42802;SDS011;28447;48.682;9.022;2023-06-19T10:10:05;3.80;;;3.40;;
42802;SDS011;28447;48.682;9.022;2023-06-19T10:12:44;3.83;;;3.53;;
42802;SDS011;28447;48.682;9.022;2023-06-19T10:15:20;3.70;;;3.40;;
42802;SDS011;28447;48.682;9.022;2023-06-19T10:17:49;5.20;;;3.20;;
42802;SDS011;28447;48.682;9.022;2023-06-19T10:23:14;4.55;;;4.15;;
42802;SDS011;28447;48.682;9.022;2023-06-19T10:25:43;4.13;;;3.75;;
42802;SDS011;28447;48.682;9.022;2023-06-19T10:30:52;3.90;;;3.60;;
42802;SDS011;28447;48.682;9.022;2023-06-19T10:33:29;3.45;;;3.15;;
42802;SDS011;28447;48.682;9.022;2023-06-19T10:35:57;4.80;;;4.18;;
42802;SDS011;28447;48.682;9.022;2023-06-19T10:38:25;4.45;;;4.10;;
42802;SDS011;28447;48.682;9.022;2023-06-19T10:40:51;6.30;;;3.90;;
42802;SDS011;28447;48.682;9.022;2023-06-19T10:43:23;4.53;;;4.13;;
42802;SDS011;28447;48.682;9.022;2023-06-19T10:45:52;4.85;;;4.20;;
42802;SDS011;28447;48.682;9.022;2023-06-19T10:48:22;4.55;;;4.15;;
42802;SDS011;28447;48.682;9.022;2023-06-19T10:50:49;3.92;;;3.63;;
42802;SDS011;28447;48.682;9.022;2023-06-19T10:55:54;4.40;;;4.00;;
42802;SDS011;28447;48.682;9.022;2023-06-19T10:58:22;5.25;;;4.20;;
42802;SDS011;28447;48.682;9.022;2023-06-19T11:00:48;4.88;;;4.47;;
42802;SDS011;28447;48.682;9.022;2023-06-19T11:03:13;4.38;;;3.97;;
42802;SDS011;28447;48.682;9.022;2023-06-19T11:05:42;4.55;;;4.20;;
42802;SDS011;28447;48.682;9.022;2023-06-19T11:08:09;4.50;;;4.10;;
42802;SDS011;28447;48.682;9.022;2023-06-19T11:10:35;5.60;;;4.15;;
42802;SDS011;28447;48.682;9.022;2023-06-19T11:13:00;5.80;;;4.80;;
42802;SDS011;28447;48.682;9.022;2023-06-19T11:17:56;5.80;;;5.10;;
42802;SDS011;28447;48.682;9.022;2023-06-19T11:20:22;4.97;;;4.57;;
42802;SDS011;28447;48.682;9.022;2023-06-19T11:22:53;5.95;;;5.22;;
42802;SDS011;28447;48.682;9.022;2023-06-19T11:25:20;5.45;;;5.00;;
42802;SDS011;28447;48.682;9.022;2023-06-19T11:27:46;4.32;;;4.03;;
42802;SDS011;28447;48.682;9.022;2023-06-19T11:30:17;5.00;;;4.60;;
42802;SDS011;28447;48.682;9.022;2023-06-19T11:32:44;5.25;;;4.78;;
42802;SDS011;28447;48.682;9.022;2023-06-19T11:35:11;5.60;;;5.10;;
42802;SDS011;28447;48.682;9.022;2023-06-19T11:37:40;5.10;;;4.63;;
42802;SDS011;28447;48.682;9.022;2023-06-19T11:40:06;6.53;;;4.88;;
42802;SDS011;28447;48.682;9.022;2023-06-19T11:42:44;4.85;;;4.45;;
42802;SDS011;28447;48.682;9.022;2023-06-19T11:45:14;5.47;;;4.78;;
42802;SDS011;28447;48.682;9.022;2023-06-19T11:47:40;5.88;;;4.93;;
42802;SDS011;28447;48.682;9.022;2023-06-19T11:50:06;6.03;;;4.70;;
42802;SDS011;28447;48.682;9.022;2023-06-19T11:52:32;5.20;;;4.72;;
42802;SDS011;28447;48.682;9.022;2023-06-19T11:54:58;5.05;;;4.55;;
42802;SDS011;28447;48.682;9.022;2023-06-19T11:57:23;4.25;;;3.95;;
42802;SDS011;28447;48.682;9.022;2023-06-19T11:59:51;7.35;;;5.07;;
42802;SDS011;28447;48.682;9.022;2023-06-19T12:02:16;7.18;;;4.97;;
42802;SDS011;28447;48.682;9.022;2023-06-19T12:04:42;4.70;;;4.30;;
42802;SDS011;28447;48.682;9.022;2023-06-19T12:07:08;5.95;;;4.28;;
42802;SDS011;28447;48.682;9.022;2023-06-19T12:09:34;4.97;;;4.57;;
42802;SDS011;28447;48.682;9.022;2023-06-19T12:12:00;4.95;;;4.55;;
42802;SDS011;28447;48.682;9.022;2023-06-19T12:14:25;5.28;;;4.88;;
42802;SDS011;28447;48.682;9.022;2023-06-19T12:16:51;5.10;;;4.70;;
42802;SDS011;28447;48.682;9.022;2023-06-19T12:19:17;4.82;;;4.50;;
42802;SDS011;28447;48.682;9.022;2023-06-19T12:21:43;5.38;;;4.97;;
42802;SDS011;28447;48.682;9.022;2023-06-19T12:24:09;5.47;;;4.97;;
42802;SDS011;28447;48.682;9.022;2023-06-19T12:26:35;5.22;;;4.55;;
42802;SDS011;28447;48.682;9.022;2023-06-19T12:29:04;5.50;;;5.03;;
42802;SDS011;28447;48.682;9.022;2023-06-19T12:31:31;5.47;;;4.35;;
42802;SDS011;28447;48.682;9.022;2023-06-19T12:33:58;5.22;;;4.75;;
42802;SDS011;28447;48.682;9.022;2023-06-19T12:36:24;4.85;;;4.47;;
42802;SDS011;28447;48.682;9.022;2023-06-19T12:38:52;4.40;;;4.00;;
42802;SDS011;28447;48.682;9.022;2023-06-19T12:41:18;4.95;;;4.55;;
42802;SDS011;28447;48.682;9.022;2023-06-19T12:43:44;8.45;;;4.93;;
42802;SDS011;28447;48.682;9.022;2023-06-19T12:46:10;5.10;;;4.45;;
42802;SDS011;28447;48.682;9.022;2023-06-19T12:48:36;6.05;;;4.97;;
42802;SDS011;28447;48.682;9.022;2023-06-19T12:51:02;5.05;;;4.65;;
42802;SDS011;28447;48.682;9.022;2023-06-19T12:53:28;5.35;;;4.95;;
42802;SDS011;28447;48.682;9.022;2023-06-19T12:55:57;5.38;;;4.97;;
42802;SDS011;28447;48.682;9.022;2023-06-19T12:58:24;5.22;;;4.82;;
42802;SDS011;28447;48.682;9.022;2023-06-19T13:00:50;5.50;;;5.00;;
42802;SDS011;28447;48.682;9.022;2023-06-19T13:03:16;5.25;;;4.78;;
42802;SDS011;28447;48.682;9.022;2023-06-19T13:05:41;5.55;;;5.05;;
42802;SDS011;28447;48.682;9.022;2023-06-19T13:08:07;5.38;;;4.88;;
42802;SDS011;28447;48.682;9.022;2023-06-19T13:10:33;5.15;;;4.40;;
42802;SDS011;28447;48.682;9.022;2023-06-19T13:12:58;5.20;;;4.70;;
42802;SDS011;28447;48.682;9.022;2023-06-19T13:15:24;6.07;;;5.07;;
42802;SDS011;28447;48.682;9.022;2023-06-19T13:17:50;5.47;;;4.97;;
42802;SDS011;28447;48.682;9.022;2023-06-19T13:20:16;4.90;;;4.50;;
42802;SDS011;28447;48.682;9.022;2023-06-19T13:22:42;5.13;;;4.72;;
42802;SDS011;28447;48.682;9.022;2023-06-19T13:25:08;6.45;;;5.28;;
42802;SDS011;28447;48.682;9.022;2023-06-19T13:27:34;5.32;;;4.82;;
42802;SDS011;28447;48.682;9.022;2023-06-19T13:30:00;5.55;;;5.15;;
42802;SDS011;28447;48.682;9.022;2023-06-19T13:32:26;5.60;;;5.10;;
42802;SDS011;28447;48.682;9.022;2023-06-19T13:34:51;5.13;;;4.72;;
42802;SDS011;28447;48.682;9.022;2023-06-19T13:37:18;6.03;;;5.45;;
42802;SDS011;28447;48.682;9.022;2023-06-19T13:39:44;5.20;;;4.80;;
42802;SDS011;28447;48.682;9.022;2023-06-19T13:42:10;5.25;;;4.85;;
42802;SDS011;28447;48.682;9.022;2023-06-19T13:44:37;5.25;;;4.75;;
42802;SDS011;28447;48.682;9.022;2023-06-19T13:47:03;5.15;;;4.75;;
42802;SDS011;28447;48.682;9.022;2023-06-19T13:49:29;5.57;;;5.18;;
42802;SDS011;28447;48.682;9.022;2023-06-19T13:51:54;4.85;;;4.32;;
42802;SDS011;28447;48.682;9.022;2023-06-19T13:54:20;5.80;;;5.30;;
42802;SDS011;28447;48.682;9.022;2023-06-19T13:56:46;5.63;;;5.13;;
42802;SDS011;28447;48.682;9.022;2023-06-19T13:59:13;5.65;;;5.20;;
42802;SDS011;28447;48.682;9.022;2023-06-19T14:01:39;6.03;;;4.70;;
42802;SDS011;28447;48.682;9.022;2023-06-19T14:04:06;5.57;;;4.90;;
42802;SDS011;28447;48.682;9.022;2023-06-19T14:06:33;5.00;;;4.50;;
42802;SDS011;28447;48.682;9.022;2023-06-19T14:08:59;5.32;;;4.47;;
42802;SDS011;28447;48.682;9.022;2023-06-19T14:11:25;5.20;;;4.80;;
42802;SDS011;28447;48.682;9.022;2023-06-19T14:13:50;4.82;;;4.43;;
42802;SDS011;28447;48.682;9.022;2023-06-19T14:16:16;4.95;;;4.60;;
42802;SDS011;28447;48.682;9.022;2023-06-19T14:18:42;5.10;;;4.70;;
42802;SDS011;28447;48.682;9.022;2023-06-19T14:21:07;5.32;;;4.80;;
42802;SDS011;28447;48.682;9.022;2023-06-19T14:23:33;5.45;;;4.78;;
42802;SDS011;28447;48.682;9.022;2023-06-19T14:26:03;5.35;;;4.90;;
42802;SDS011;28447;48.682;9.022;2023-06-19T14:28:29;5.75;;;4.93;;
42802;SDS011;28447;48.682;9.022;2023-06-19T14:30:55;5.78;;;5.30;;
42802;SDS011;28447;48.682;9.022;2023-06-19T14:33:20;4.93;;;4.32;;
42802;SDS011;28447;48.682;9.022;2023-06-19T14:35:46;4.70;;;4.30;;
42802;SDS011;28447;48.682;9.022;2023-06-19T14:38:12;4.80;;;4.40;;
42802;SDS011;28447;48.682;9.022;2023-06-19T14:40:39;5.38;;;4.97;;
42802;SDS011;28447;48.682;9.022;2023-06-19T14:43:05;4.50;;;4.20;;
42802;SDS011;28447;48.682;9.022;2023-06-19T14:45:31;4.38;;;4.07;;
42802;SDS011;28447;48.682;9.022;2023-06-19T14:47:56;4.75;;;4.35;;
42802;SDS011;28447;48.682;9.022;2023-06-19T14:50:22;4.82;;;4.43;;
42802;SDS011;28447;48.682;9.022;2023-06-19T14:52:48;4.47;;;4.18;;
42802;SDS011;28447;48.682;9.022;2023-06-19T14:55:13;5.22;;;4.63;;
42802;SDS011;28447;48.682;9.022;2023-06-19T14:57:39;5.32;;;4.82;;
42802;SDS011;28447;48.682;9.022;2023-06-19T15:00:05;4.95;;;4.40;;
42802;SDS011;28447;48.682;9.022;2023-06-19T15:02:31;4.80;;;4.40;;
42802;SDS011;28447;48.682;9.022;2023-06-19T15:04:56;4.80;;;4.40;;
42802;SDS011;28447;48.682;9.022;2023-06-19T15:07:22;4.63;;;4.22;;
42802;SDS011;28447;48.682;9.022;2023-06-19T15:09:48;5.93;;;4.93;;
42802;SDS011;28447;48.682;9.022;2023-06-19T15:12:14;4.88;;;4.47;;
42802;SDS011;28447;48.682;9.022;2023-06-19T15:14:39;4.82;;;4.43;;
42802;SDS011;28447;48.682;9.022;2023-06-19T15:17:06;4.20;;;3.90;;
42802;SDS011;28447;48.682;9.022;2023-06-19T15:19:31;5.50;;;4.85;;
42802;SDS011;28447;48.682;9.022;2023-06-19T15:21:57;5.47;;;4.97;;
42802;SDS011;28447;48.682;9.022;2023-06-19T15:24:23;5.47;;;4.97;;
42802;SDS011;28447;48.682;9.022;2023-06-19T15:26:49;4.75;;;4.35;;
42802;SDS011;28447;48.682;9.022;2023-06-19T15:29:14;5.72;;;5.22;;
42802;SDS011;28447;48.682;9.022;2023-06-19T15:31:40;6.30;;;4.68;;
42802;SDS011;28447;48.682;9.022;2023-06-19T15:34:06;5.45;;;4.97;;
42802;SDS011;28447;48.682;9.022;2023-06-19T15:36:31;5.45;;;5.03;;
42802;SDS011;28447;48.682;9.022;2023-06-19T15:38:57;5.18;;;4.78;;
42802;SDS011;28447;48.682;9.022;2023-06-19T15:41:23;5.50;;;5.00;;
42802;SDS011;28447;48.682;9.022;2023-06-19T15:43:48;4.82;;;4.43;;
42802;SDS011;28447;48.682;9.022;2023-06-19T15:46:15;5.00;;;4.57;;
42802;SDS011;28447;48.682;9.022;2023-06-19T15:48:41;5.10;;;4.70;;
42802;SDS011;28447;48.682;9.022;2023-06-19T15:51:07;5.05;;;4.65;;
42802;SDS011;28447;48.682;9.022;2023-06-19T15:53:33;4.95;;;4.55;;
42802;SDS011;28447;48.682;9.022;2023-06-19T15:55:58;5.13;;;4.72;;
42802;SDS011;28447;48.682;9.022;2023-06-19T15:58:24;6.35;;;4.57;;
42802;SDS011;28447;48.682;9.022;2023-06-19T16:00:50;5.90;;;5.40;;
42802;SDS011;28447;48.682;9.022;2023-06-19T16:03:18;5.90;;;5.30;;
42802;SDS011;28447;48.682;9.022;2023-06-19T16:05:45;5.95;;;5.45;;
42802;SDS011;28447;48.682;9.022;2023-06-19T16:08:17;5.60;;;5.00;;
42802;SDS011;28447;48.682;9.022;2023-06-19T16:10:44;8.70;;;5.40;;
42802;SDS011;28447;48.682;9.022;2023-06-19T16:13:10;6.13;;;5.63;;
42802;SDS011;28447;48.682;9.022;2023-06-19T16:15:36;6.97;;;6.38;;
42802;SDS011;28447;48.682;9.022;2023-06-19T16:18:02;10.20;;;5.28;;
42802;SDS011;28447;48.682;9.022;2023-06-19T16:20:28;7.10;;;6.50;;
42802;SDS011;28447;48.682;9.022;2023-06-19T16:22:54;7.15;;;5.90;;
42802;SDS011;28447;48.682;9.022;2023-06-19T16:25:20;5.95;;;5.45;;
42802;SDS011;28447;48.682;9.022;2023-06-19T16:27:47;6.25;;;5.63;;
42802;SDS011;28447;48.682;9.022;2023-06-19T16:30:13;6.35;;;5.80;;
42802;SDS011;28447;48.682;9.022;2023-06-19T16:32:39;7.95;;;6.28;;
42802;SDS011;28447;48.682;9.022;2023-06-19T16:35:05;7.72;;;5.97;;
42802;SDS011;28447;48.682;9.022;2023-06-19T16:37:31;7.40;;;5.95;;
42802;SDS011;28447;48.682;9.022;2023-06-19T16:39:57;6.32;;;5.50;;
42802;SDS011;28447;48.682;9.022;2023-06-19T16:42:22;7.10;;;6.50;;
42802;SDS011;28447;48.682;9.022;2023-06-19T16:44:50;7.22;;;6.20;;
42802;SDS011;28447;48.682;9.022;2023-06-19T16:47:16;10.50;;;6.13;;
42802;SDS011;28447;48.682;9.022;2023-06-19T16:49:42;8.65;;;6.22;;
42802;SDS011;28447;48.682;9.022;2023-06-19T16:52:08;5.50;;;5.00;;
42802;SDS011;28447;48.682;9.022;2023-06-19T16:54:33;7.15;;;6.45;;
42802;SDS011;28447;48.682;9.022;2023-06-19T16:56:59;6.93;;;6.10;;
42802;SDS011;28447;48.682;9.022;2023-06-19T16:59:25;7.85;;;6.32;;
42802;SDS011;28447;48.682;9.022;2023-06-19T17:01:51;6.78;;;6.25;;
42802;SDS011;28447;48.682;9.022;2023-06-19T17:04:16;7.57;;;6.05;;
42802;SDS011;28447;48.682;9.022;2023-06-19T17:06:42;7.20;;;6.50;;
42802;SDS011;28447;48.682;9.022;2023-06-19T17:09:08;10.60;;;5.40;;
42802;SDS011;28447;48.682;9.022;2023-06-19T17:11:33;5.93;;;5.43;;
42802;SDS011;28447;48.682;9.022;2023-06-19T17:13:59;6.53;;;5.35;;
42802;SDS011;28447;48.682;9.022;2023-06-19T17:16:25;7.80;;;6.50;;
42802;SDS011;28447;48.682;9.022;2023-06-19T17:18:51;6.15;;;5.63;;
42802;SDS011;28447;48.682;9.022;2023-06-19T17:21:16;7.20;;;6.55;;
42802;SDS011;28447;48.682;9.022;2023-06-19T17:23:42;6.65;;;5.88;;
42802;SDS011;28447;48.682;9.022;2023-06-19T17:26:07;8.27;;;6.40;;
42802;SDS011;28447;48.682;9.022;2023-06-19T17:28:33;6.38;;;5.78;;
42802;SDS011;28447;48.682;9.022;2023-06-19T17:30:59;6.75;;;6.03;;
42802;SDS011;28447;48.682;9.022;2023-06-19T17:33:25;7.55;;;5.88;;
42802;SDS011;28447;48.682;9.022;2023-06-19T17:35:51;7.18;;;6.45;;
42802;SDS011;28447;48.682;9.022;2023-06-19T17:38:17;6.75;;;6.15;;
42802;SDS011;28447;48.682;9.022;2023-06-19T17:40:43;9.63;;;6.35;;
42802;SDS011;28447;48.682;9.022;2023-06-19T17:43:08;7.05;;;6.38;;
42802;SDS011;28447;48.682;9.022;2023-06-19T17:45:34;6.32;;;5.72;;
42802;SDS011;28447;48.682;9.022;2023-06-19T17:48:00;7.38;;;6.68;;
42802;SDS011;28447;48.682;9.022;2023-06-19T17:50:27;7.40;;;6.70;;
42802;SDS011;28447;48.682;9.022;2023-06-19T17:52:53;6.80;;;6.20;;
42802;SDS011;28447;48.682;9.022;2023-06-19T17:55:18;6.70;;;6.00;;
42802;SDS011;28447;48.682;9.022;2023-06-19T17:57:44;7.10;;;6.40;;
42802;SDS011;28447;48.682;9.022;2023-06-19T18:00:10;7.60;;;6.78;;
42802;SDS011;28447;48.682;9.022;2023-06-19T18:02:36;6.65;;;6.05;;
42802;SDS011;28447;48.682;9.022;2023-06-19T18:05:01;6.47;;;5.88;;
42802;SDS011;28447;48.682;9.022;2023-06-19T18:07:27;6.57;;;5.70;;
42802;SDS011;28447;48.682;9.022;2023-06-19T18:09:53;7.20;;;6.50;;
42802;SDS011;28447;48.682;9.022;2023-06-19T18:12:20;6.95;;;6.28;;
42802;SDS011;28447;48.682;9.022;2023-06-19T18:14:46;6.38;;;5.78;;
42802;SDS011;28447;48.682;9.022;2023-06-19T18:17:12;8.23;;;6.80;;
42802;SDS011;28447;48.682;9.022;2023-06-19T18:19:38;7.53;;;5.97;;
42802;SDS011;28447;48.682;9.022;2023-06-19T18:22:04;10.45;;;6.35;;
42802;SDS011;28447;48.682;9.022;2023-06-19T18:24:30;6.82;;;5.70;;
42802;SDS011;28447;48.682;9.022;2023-06-19T18:26:55;6.40;;;5.90;;
42802;SDS011;28447;48.682;9.022;2023-06-19T18:29:21;6.88;;;6.18;;
42802;SDS011;28447;48.682;9.022;2023-06-19T18:31:48;6.90;;;6.30;;
42802;SDS011;28447;48.682;9.022;2023-06-19T18:34:14;7.07;;;6.38;;
42802;SDS011;28447;48.682;9.022;2023-06-19T18:36:40;8.38;;;6.63;;
42802;SDS011;28447;48.682;9.022;2023-06-19T18:39:06;10.50;;;6.95;;
42802;SDS011;28447;48.682;9.022;2023-06-19T18:41:32;7.63;;;6.70;;
42802;SDS011;28447;48.682;9.022;2023-06-19T18:43:57;6.80;;;6.18;;
42802;SDS011;28447;48.682;9.022;2023-06-19T18:46:23;6.97;;;6.25;;
42802;SDS011;28447;48.682;9.022;2023-06-19T18:48:49;8.77;;;6.05;;
42802;SDS011;28447;48.682;9.022;2023-06-19T18:51:15;7.00;;;6.25;;
42802;SDS011;28447;48.682;9.022;2023-06-19T18:53:40;7.22;;;6.53;;